Time;durP1;ratioP1;P1;durP2;ratioP2;P2;SDS_P1;SDS_P2;PMS_P1;PMS_P2;Temp;Humidity;BMP_temperature;BMP_pressure;BME280_temperature;BME280_humidity;BME280_pressure;Samples;Min_cycle;Max_cycle;Signal;HPM_P1;HPM_P2
2022/05/20 00:02:19;;;;;;;8.82;6.07;;;14.20;99.90;;;;;;4993407;28;20108;-68
2022/05/20 00:04:45;;;;;;;10.80;5.80;;;14.20;99.90;;;;;;4993058;28;20098;-68
2022/05/20 00:07:11;;;;;;;10.23;6.47;;;14.20;99.90;;;;;;4976370;28;20050;-70
2022/05/20 00:09:38;;;;;;;7.53;6.20;;;14.10;99.90;;;;;;4976399;28;20394;-68
2022/05/20 00:12:05;;;;;;;8.85;6.43;;;14.10;99.90;;;;;;4993637;28;20212;-68
2022/05/20 00:14:34;;;;;;;9.80;6.43;;;14.10;99.90;;;;;;4995836;28;20071;-68
2022/05/20 00:17:04;;;;;;;10.80;7.25;;;14.10;99.90;;;;;;4976913;28;20394;-68
2022/05/20 00:19:32;;;;;;;9.70;7.07;;;14.10;99.90;;;;;;4960745;28;20045;-68
2022/05/20 00:21:58;;;;;;;9.23;6.95;;;14.00;99.90;;;;;;4993009;28;20479;-68
2022/05/20 00:24:24;;;;;;;9.02;7.00;;;14.00;99.90;;;;;;4992870;28;20042;-68
2022/05/20 00:26:50;;;;;;;10.90;7.47;;;14.00;99.90;;;;;;4982520;28;20056;-68
2022/05/20 00:29:18;;;;;;;8.70;6.72;;;13.90;99.90;;;;;;4995236;28;20544;-68
2022/05/20 00:31:44;;;;;;;11.13;8.20;;;13.90;99.90;;;;;;4983229;28;20100;-69
2022/05/20 00:34:10;;;;;;;11.32;8.10;;;13.90;99.90;;;;;;4978691;28;20394;-69
2022/05/20 00:36:36;;;;;;;11.75;8.77;;;13.80;99.90;;;;;;4995258;28;20486;-67
2022/05/20 00:39:03;;;;;;;10.30;8.25;;;13.90;99.90;;;;;;4982289;28;20078;-68
2022/05/20 00:41:29;;;;;;;11.57;8.25;;;13.80;99.90;;;;;;4995186;28;20482;-68
2022/05/20 00:43:56;;;;;;;9.50;6.88;;;13.80;99.90;;;;;;4994061;28;20052;-68
2022/05/20 00:46:26;;;;;;;10.90;7.53;;;13.80;99.90;;;;;;4975562;28;20394;-68
2022/05/20 00:49:12;;;;;;;8.35;7.30;;;13.70;99.90;;;;;;4976229;28;20042;-68
2022/05/20 00:51:53;;;;;;;11.00;8.20;;;13.70;99.90;;;;;;4975874;28;20517;-69
2022/05/20 00:54:27;;;;;;;10.65;8.18;;;13.70;99.90;;;;;;4976018;28;20042;-68
2022/05/20 00:57:01;;;;;;;12.95;8.43;;;13.70;99.90;;;;;;4974955;28;20479;-70
2022/05/20 00:59:30;;;;;;;11.20;8.10;;;13.60;99.90;;;;;;4975906;28;20038;-70
2022/05/20 01:02:00;;;;;;;14.02;8.35;;;13.70;99.90;;;;;;4976245;28;20367;-69
2022/05/20 01:04:28;;;;;;;13.07;9.20;;;13.60;99.90;;;;;;4975916;28;20056;-68
2022/05/20 01:06:55;;;;;;;14.48;9.93;;;13.60;99.90;;;;;;4975331;28;20120;-68
2022/05/20 01:09:21;;;;;;;11.63;8.55;;;13.60;99.90;;;;;;4959937;28;20054;-68
2022/05/20 01:11:47;;;;;;;12.18;8.52;;;13.60;99.90;;;;;;5003854;28;20132;-68
2022/05/20 01:14:24;;;;;;;11.70;8.73;;;13.60;99.90;;;;;;4969588;28;20058;-68
2022/05/20 01:16:51;;;;;;;11.68;8.18;;;13.50;99.90;;;;;;4975521;28;20050;-68
2022/05/20 01:19:48;;;;;;;13.80;8.38;;;13.40;99.90;;;;;;4959492;28;20442;-68
2022/05/20 01:22:27;;;;;;;11.75;8.82;;;13.40;99.90;;;;;;4988579;28;20046;-68
2022/05/20 01:24:53;;;;;;;10.77;8.48;;;13.40;99.90;;;;;;4994303;28;20104;-70
2022/05/20 01:27:19;;;;;;;15.15;8.98;;;13.30;99.90;;;;;;4977974;28;20088;-68
2022/05/20 01:29:45;;;;;;;16.70;9.80;;;13.30;99.90;;;;;;4978186;28;20448;-69
2022/05/20 01:32:11;;;;;;;15.57;9.57;;;13.20;99.90;;;;;;4962295;28;20049;-67
2022/05/20 01:34:37;;;;;;;12.77;9.48;;;13.20;99.90;;;;;;4978470;28;20121;-68
2022/05/20 01:37:03;;;;;;;14.07;9.90;;;13.00;99.90;;;;;;4993704;28;20049;-68
2022/05/20 01:39:29;;;;;;;17.30;10.45;;;13.00;99.90;;;;;;4977757;28;20042;-67
2022/05/20 01:42:07;;;;;;;13.38;10.07;;;12.90;99.90;;;;;;5011527;28;20096;-68
2022/05/20 01:44:45;;;;;;;15.80;10.63;;;12.80;99.90;;;;;;4988772;28;20052;-70
2022/05/20 01:47:20;;;;;;;14.18;10.80;;;12.70;99.90;;;;;;4974919;28;20050;-68
2022/05/20 01:49:58;;;;;;;16.77;11.57;;;12.70;99.90;;;;;;4975341;28;20038;-68
2022/05/20 01:52:30;;;;;;;20.45;11.63;;;12.60;99.90;;;;;;4975243;28;20050;-69
2022/05/20 01:55:06;;;;;;;17.75;11.60;;;12.50;99.90;;;;;;4974931;28;20133;-68
2022/05/20 01:57:47;;;;;;;16.27;11.60;;;12.50;99.90;;;;;;4975180;28;20081;-70
2022/05/20 02:00:26;;;;;;;17.27;12.05;;;12.50;99.90;;;;;;4978845;28;20161;-69
2022/05/20 02:03:16;;;;;;;17.42;12.18;;;12.40;99.90;;;;;;4963154;28;20087;-70
2022/05/20 02:05:47;;;;;;;20.60;12.43;;;12.40;99.90;;;;;;4996378;28;20046;-69
2022/05/20 02:08:35;;;;;;;;;;;12.40;99.90;;;;;;4998703;28;20049;-69
2022/05/20 02:11:07;;;;;;;17.77;12.05;;;12.40;99.90;;;;;;5005815;28;20068;-69
2022/05/20 02:13:36;;;;;;;16.63;11.35;;;12.40;99.90;;;;;;4980674;28;20394;-68
2022/05/20 02:16:08;;;;;;;17.40;11.73;;;12.40;99.90;;;;;;4978550;28;20502;-68
2022/05/20 02:18:42;;;;;;;21.60;12.05;;;12.30;99.90;;;;;;4978942;28;20478;-68
2022/05/20 02:21:15;;;;;;;17.92;12.25;;;12.20;99.90;;;;;;4978668;28;20533;-68
2022/05/20 02:23:48;;;;;;;18.63;12.63;;;12.20;99.90;;;;;;4962433;28;20042;-69
2022/05/20 02:26:17;;;;;;;17.98;12.40;;;12.10;99.90;;;;;;4977880;28;20154;-67
2022/05/20 02:28:49;;;;;;;15.95;11.40;;;12.10;99.90;;;;;;4987381;28;20054;-68
2022/05/20 02:31:20;;;;;;;16.67;11.65;;;12.00;99.90;;;;;;4982125;28;20074;-67
2022/05/20 02:33:46;;;;;;;19.02;11.60;;;12.00;99.90;;;;;;4978542;28;20399;-68
2022/05/20 02:36:28;;;;;;;19.20;12.65;;;11.90;99.90;;;;;;4962507;28;20053;-67
2022/05/20 02:38:54;;;;;;;20.15;12.32;;;11.90;99.90;;;;;;4978307;28;20042;-67
2022/05/20 02:41:20;;;;;;;15.75;11.77;;;11.80;99.90;;;;;;4962345;28;20493;-67
2022/05/20 02:43:46;;;;;;;20.45;12.10;;;11.80;99.90;;;;;;4990950;28;20077;-68
2022/05/20 02:46:13;;;;;;;13.85;9.25;;;11.70;99.90;;;;;;4996645;28;20494;-68
2022/05/20 02:48:38;;;;;;;14.52;11.45;;;11.60;99.90;;;;;;4968827;28;20042;-68
2022/05/20 02:51:04;;;;;;;20.02;11.90;;;11.50;99.90;;;;;;4995825;28;20128;-68
2022/05/20 02:53:31;;;;;;;18.25;12.88;;;11.50;99.90;;;;;;4978109;28;20483;-67
2022/05/20 02:55:57;;;;;;;19.42;12.80;;;11.40;99.90;;;;;;4977983;28;20046;-68
2022/05/20 03:04:12;;;;;;;18.77;12.63;;;11.30;99.90;;;;;;4978262;28;20046;-68
2022/05/20 03:06:42;;;;;;;20.40;13.32;;;11.30;99.90;;;;;;4961556;28;20038;-68
2022/05/20 03:09:10;;;;;;;19.83;12.67;;;11.30;99.90;;;;;;4993422;28;20085;-69
2022/05/20 03:11:39;;;;;;;14.60;9.50;;;11.30;99.90;;;;;;4976592;28;20046;-67
2022/05/20 03:14:05;;;;;;;13.52;10.07;;;11.20;99.90;;;;;;4977138;28;20491;-69
2022/05/20 03:16:32;;;;;;;17.65;10.95;;;11.10;99.90;;;;;;4976628;28;20123;-68
2022/05/20 03:18:58;;;;;;;13.05;11.02;;;11.00;99.90;;;;;;4993057;28;20042;-68
2022/05/20 03:21:25;;;;;;;19.73;13.68;;;11.00;99.90;;;;;;4977163;28;20129;-67
2022/05/20 03:23:51;;;;;;;20.90;13.35;;;11.00;99.90;;;;;;4960906;28;20054;-69
2022/05/20 03:26:18;;;;;;;16.35;11.18;;;11.00;99.90;;;;;;4976498;28;20050;-68
2022/05/20 03:28:45;;;;;;;17.67;12.63;;;10.90;99.90;;;;;;4977725;28;20050;-68
2022/05/20 03:31:12;;;;;;;18.95;12.82;;;10.90;99.90;;;;;;4977623;28;20046;-67
2022/05/20 03:33:40;;;;;;;14.27;11.32;;;10.90;99.90;;;;;;4977707;28;20126;-69
2022/05/20 03:36:07;;;;;;;17.58;12.52;;;10.80;99.90;;;;;;4977062;28;20042;-68
2022/05/20 03:38:34;;;;;;;21.38;12.85;;;10.80;99.90;;;;;;4977093;28;20042;-67
2022/05/20 03:41:00;;;;;;;16.27;12.40;;;10.90;99.90;;;;;;4977193;28;20042;-67
2022/05/20 03:43:26;;;;;;;16.08;12.30;;;10.80;99.90;;;;;;4971133;28;20038;-68
2022/05/20 03:45:53;;;;;;;19.02;12.43;;;10.80;99.90;;;;;;4980512;28;20045;-68
2022/05/20 03:48:20;;;;;;;13.98;10.25;;;10.80;99.90;;;;;;5013060;28;20088;-68
2022/05/20 03:50:47;;;;;;;15.73;11.27;;;10.80;99.90;;;;;;5012197;28;20054;-67
2022/05/20 03:53:13;;;;;;;19.60;12.82;;;10.80;99.90;;;;;;4996363;28;20050;-68
2022/05/20 03:55:40;;;;;;;14.18;10.15;;;10.80;99.90;;;;;;5012196;28;20038;-68
2022/05/20 03:58:06;;;;;;;18.73;11.38;;;10.80;99.90;;;;;;5012482;28;20103;-67
2022/05/20 04:01:56;;;;;;;16.75;11.57;;;10.80;99.90;;;;;;5012104;28;20085;-67
2022/05/20 04:03:18;;;;;;;22.35;13.85;;;10.90;99.90;;;;;;4996315;28;20140;-68
2022/05/20 04:05:44;;;;;;;25.08;15.75;;;10.90;99.90;;;;;;4995334;28;20053;-68
2022/05/20 04:08:10;;;;;;;22.52;14.10;;;10.90;99.90;;;;;;4995795;28;20077;-68
2022/05/20 04:10:37;;;;;;;21.85;13.68;;;11.00;99.90;;;;;;4979338;28;20045;-68
2022/05/20 04:13:03;;;;;;;18.92;13.63;;;10.90;99.90;;;;;;4995704;28;20084;-68
2022/05/20 04:15:29;;;;;;;27.27;16.58;;;10.90;99.90;;;;;;4979776;28;20041;-68
2022/05/20 04:17:55;;;;;;;20.20;15.30;;;11.00;99.90;;;;;;5011973;28;20504;-67
2022/05/20 04:20:21;;;;;;;20.60;13.00;;;11.10;99.90;;;;;;4995514;28;20042;-68
2022/05/20 04:22:47;;;;;;;20.00;13.05;;;11.10;99.90;;;;;;4988673;28;20073;-68
2022/05/20 04:25:14;;;;;;;21.58;13.35;;;11.10;99.90;;;;;;4994809;28;20619;-68
2022/05/20 04:27:40;;;;;;;18.83;13.18;;;11.10;99.90;;;;;;4979864;28;20042;-68
2022/05/20 04:30:07;;;;;;;20.67;13.85;;;11.20;99.90;;;;;;4995276;28;20137;-69
2022/05/20 04:32:33;;;;;;;22.63;13.93;;;11.30;99.90;;;;;;4979110;28;20050;-68
2022/05/20 04:34:59;;;;;;;24.33;13.93;;;11.30;99.90;;;;;;5010884;28;20172;-67
2022/05/20 04:37:27;;;;;;;30.10;16.80;;;11.40;99.90;;;;;;4978827;28;20042;-68
2022/05/20 04:39:54;;;;;;;31.92;17.52;;;11.40;99.90;;;;;;4972514;28;20108;-71
2022/05/20 04:47:51;;;;;;;30.50;18.45;;;12.30;99.90;;;;;;4976550;28;20525;-68
2022/05/20 04:50:17;;;;;;;28.02;17.42;;;11.80;99.90;;;;;;4976195;28;20386;-67
2022/05/20 04:52:44;;;;;;;30.92;17.55;;;11.90;99.90;;;;;;4994933;28;20054;-70
2022/05/20 04:55:10;;;;;;;30.15;17.40;;;11.90;99.90;;;;;;4994133;28;20054;-68
2022/05/20 04:57:46;;;;;;;24.95;16.95;;;12.00;99.90;;;;;;4950637;28;20045;-68
2022/05/20 05:00:17;;;;;;;29.67;17.33;;;12.00;99.90;;;;;;4980324;28;20038;-68
2022/05/20 05:02:44;;;;;;;26.83;17.00;;;12.10;99.90;;;;;;4976071;28;20092;-68
2022/05/20 05:05:13;;;;;;;33.13;18.00;;;12.20;99.90;;;;;;4991582;28;20061;-68
2022/05/20 05:07:41;;;;;;;30.98;17.35;;;12.20;99.90;;;;;;4976008;28;20050;-67
2022/05/20 05:10:10;;;;;;;29.55;17.33;;;12.30;99.90;;;;;;4976065;28;20058;-68
2022/05/20 05:12:36;;;;;;;26.33;16.45;;;12.30;99.90;;;;;;4991552;28;20038;-68
2022/05/20 05:15:03;;;;;;;30.73;17.50;;;12.30;99.90;;;;;;4959516;28;20396;-68
2022/05/20 05:20:23;;;;;;;30.50;19.15;;;12.40;99.90;;;;;;4975891;28;20469;-68
2022/05/20 05:22:53;;;;;;;28.48;17.35;;;12.50;99.90;;;;;;4976349;28;20104;-68
2022/05/20 05:25:22;;;;;;;33.33;19.48;;;12.60;99.90;;;;;;4982104;28;20081;-68
2022/05/20 05:27:48;;;;;;;35.15;19.48;;;12.70;99.90;;;;;;4981206;28;20050;-68
2022/05/20 05:30:15;;;;;;;31.60;18.20;;;12.80;99.90;;;;;;4943820;28;20042;-69
2022/05/20 05:32:41;;;;;;;30.55;18.45;;;12.80;99.90;;;;;;4959273;28;20387;-69
2022/05/20 05:35:12;;;;;;;28.95;18.92;;;12.90;99.90;;;;;;4942653;28;20078;-68
2022/05/20 05:37:40;;;;;;;29.53;18.77;;;13.00;99.90;;;;;;4975286;28;20466;-68
2022/05/20 05:40:09;;;;;;;27.73;18.80;;;13.00;99.90;;;;;;4959133;28;20042;-68
2022/05/20 05:42:35;;;;;;;33.35;19.55;;;13.10;99.90;;;;;;4978633;28;20417;-70
2022/05/20 05:45:03;;;;;;;35.90;19.90;;;13.20;99.90;;;;;;4984508;28;20057;-68
2022/05/20 05:47:29;;;;;;;32.65;20.63;;;13.30;99.90;;;;;;4959429;28;20081;-68
2022/05/20 05:49:56;;;;;;;35.47;20.67;;;13.50;99.90;;;;;;4959041;28;20092;-68
2022/05/20 05:52:22;;;;;;;33.92;19.92;;;13.60;99.90;;;;;;4958732;28;20054;-69
2022/05/20 05:54:48;;;;;;;31.63;19.80;;;13.80;99.90;;;;;;4975231;28;20487;-68
2022/05/20 05:57:13;;;;;;;33.13;20.50;;;13.80;99.90;;;;;;4974936;28;20042;-68
2022/05/20 05:59:40;;;;;;;35.10;21.02;;;13.80;99.90;;;;;;4975138;28;20050;-68
2022/05/20 06:02:08;;;;;;;32.40;20.13;;;14.00;99.90;;;;;;4975509;28;20054;-71
2022/05/20 06:04:35;;;;;;;29.95;18.88;;;14.10;99.90;;;;;;4959142;28;20058;-68
2022/05/20 06:07:01;;;;;;;33.30;19.90;;;14.20;99.90;;;;;;4974501;28;20046;-69
2022/05/20 06:09:27;;;;;;;32.33;19.60;;;14.30;99.90;;;;;;4975052;28;20471;-69
2022/05/20 06:11:53;;;;;;;30.00;18.40;;;14.30;99.90;;;;;;4959563;28;20046;-71
2022/05/20 06:14:19;;;;;;;27.45;18.15;;;14.30;99.90;;;;;;4975097;28;20609;-69
2022/05/20 06:16:45;;;;;;;28.23;19.23;;;14.40;99.90;;;;;;4974842;28;20052;-69
2022/05/20 06:19:11;;;;;;;34.83;20.08;;;14.70;99.90;;;;;;4958757;28;20038;-68
2022/05/20 06:21:40;;;;;;;32.13;20.25;;;14.80;99.90;;;;;;4959474;28;20058;-69
2022/05/20 06:24:08;;;;;;;28.80;17.98;;;14.90;99.90;;;;;;4975379;28;20399;-69
2022/05/20 06:26:35;;;;;;;27.50;17.80;;;14.90;99.90;;;;;;4958937;28;20082;-69
2022/05/20 06:29:03;;;;;;;29.23;18.30;;;14.80;99.90;;;;;;4974711;28;20471;-68
2022/05/20 06:31:29;;;;;;;22.27;15.98;;;14.80;99.90;;;;;;4974720;28;20046;-69
2022/05/20 06:33:57;;;;;;;27.90;15.88;;;14.80;99.90;;;;;;4974902;28;20069;-68
2022/05/20 06:41:53;;;;;;;25.98;16.10;;;14.80;99.90;;;;;;4974955;28;20054;-69
2022/05/20 06:44:20;;;;;;;24.95;15.55;;;15.00;99.90;;;;;;4984595;28;20046;-70
2022/05/20 06:46:46;;;;;;;20.33;13.63;;;15.20;99.90;;;;;;4961451;28;20128;-69
2022/05/20 06:49:13;;;;;;;24.02;14.52;;;15.40;99.90;;;;;;4946725;28;20056;-68
2022/05/20 06:51:39;;;;;;;16.75;11.48;;;15.60;99.90;;;;;;4978079;28;20201;-68
2022/05/20 06:54:08;;;;;;;22.92;13.23;;;15.70;99.90;;;;;;4978032;28;20129;-69
2022/05/20 06:56:35;;;;;;;15.65;12.27;;;15.80;99.90;;;;;;4977901;28;20053;-69
2022/05/20 06:59:02;;;;;;;18.08;11.50;;;15.80;99.90;;;;;;4946107;28;20046;-68
2022/05/20 07:01:29;;;;;;;15.27;9.75;;;15.90;99.90;;;;;;4977980;28;20466;-69
2022/05/20 07:03:55;;;;;;;14.40;10.40;;;16.10;99.90;;;;;;4962233;28;20069;-68
2022/05/20 07:06:22;;;;;;;16.42;9.68;;;16.20;99.90;;;;;;4961544;28;20167;-69
2022/05/20 07:08:48;;;;;;;15.68;9.70;;;16.40;99.90;;;;;;4994237;28;20042;-68
2022/05/20 07:11:18;;;;;;;16.63;10.70;;;16.50;99.90;;;;;;4994096;28;20047;-69
2022/05/20 07:13:44;;;;;;;17.35;10.93;;;16.60;99.90;;;;;;4977961;28;20050;-68
2022/05/20 07:16:10;;;;;;;15.68;10.38;;;16.70;99.90;;;;;;4961092;28;20494;-68
2022/05/20 07:18:37;;;;;;;16.05;10.30;;;16.70;99.90;;;;;;4961786;28;20384;-68
2022/05/20 07:21:03;;;;;;;14.27;10.07;;;16.50;99.90;;;;;;4977809;28;20086;-69
2022/05/20 07:23:31;;;;;;;15.63;10.68;;;16.50;99.90;;;;;;4994237;28;20043;-68
2022/05/20 07:25:57;;;;;;;15.18;9.27;;;16.50;99.90;;;;;;4961036;28;20050;-69
2022/05/20 07:28:24;;;;;;;14.27;8.70;;;16.60;99.90;;;;;;5009612;28;20077;-70
2022/05/20 07:30:50;;;;;;;14.70;8.50;;;16.70;99.90;;;;;;4996913;28;20048;-68
2022/05/20 07:33:16;;;;;;;12.43;8.15;;;16.70;99.90;;;;;;4996828;28;20425;-68
2022/05/20 07:35:42;;;;;;;15.73;8.90;;;16.80;99.90;;;;;;4989300;28;20042;-68
2022/05/20 07:38:09;;;;;;;12.55;7.95;;;16.80;99.90;;;;;;5012755;28;20050;-68
2022/05/20 07:40:35;;;;;;;16.70;8.30;;;16.80;99.90;;;;;;4996071;28;20038;-69
2022/05/20 07:43:02;;;;;;;12.43;7.10;;;16.70;99.90;;;;;;4996787;28;20100;-68
2022/05/20 07:45:28;;;;;;;10.10;6.20;;;16.80;99.90;;;;;;4995646;28;20103;-68
2022/05/20 07:47:54;;;;;;;13.73;7.65;;;16.90;99.90;;;;;;4961169;28;20498;-68
2022/05/20 07:50:20;;;;;;;11.25;6.70;;;17.00;99.90;;;;;;4977547;28;20050;-69
2022/05/20 07:55:39;;;;;;;11.30;7.88;;;16.80;99.90;;;;;;4994259;28;20132;-68
2022/05/20 07:58:08;;;;;;;10.57;7.47;;;16.90;99.90;;;;;;4975894;28;20104;-68
2022/05/20 08:00:35;;;;;;;12.88;7.10;;;17.00;99.90;;;;;;4993398;28;20117;-68
2022/05/20 08:03:02;;;;;;;12.38;7.20;;;17.20;99.90;;;;;;4993349;28;20042;-70
2022/05/20 08:05:30;;;;;;;9.48;7.03;;;17.20;99.90;;;;;;4992488;28;20050;-70
2022/05/20 08:08:00;;;;;;;11.00;7.63;;;16.70;99.90;;;;;;4976732;28;20108;-69
2022/05/20 08:10:29;;;;;;;10.00;7.05;;;16.50;99.90;;;;;;4977228;28;20042;-69
2022/05/20 08:12:56;;;;;;;11.88;6.60;;;16.40;99.90;;;;;;4976995;28;20100;-68
2022/05/20 08:15:23;;;;;;;9.88;6.47;;;16.40;99.90;;;;;;4977191;28;20046;-68
2022/05/20 08:17:50;;;;;;;10.18;6.45;;;16.70;99.90;;;;;;4976758;28;20487;-68
2022/05/20 08:20:30;;;;;;;13.30;6.18;;;16.90;99.90;;;;;;4992901;28;20392;-69
2022/05/20 08:22:57;;;;;;;9.98;5.53;;;17.00;99.90;;;;;;4992999;28;20046;-68
2022/05/20 08:25:25;;;;;;;9.38;4.65;;;16.90;99.90;;;;;;4975813;28;20038;-71
2022/05/20 08:27:52;;;;;;;9.63;5.20;;;17.20;99.90;;;;;;4993317;28;20092;-70
2022/05/20 08:30:25;;;;;;;7.35;4.00;;;17.30;99.90;;;;;;4984042;28;20041;-68
2022/05/20 08:32:51;;;;;;;9.45;5.03;;;17.40;99.90;;;;;;4995405;28;20092;-68
2022/05/20 08:35:19;;;;;;;10.27;6.47;;;17.60;99.90;;;;;;4995325;28;20053;-69
2022/05/20 08:37:48;;;;;;;6.95;4.30;;;17.60;99.90;;;;;;4995244;28;20131;-70
2022/05/20 08:40:29;;;;;;;8.43;5.43;;;17.30;99.90;;;;;;4995281;28;20506;-69
2022/05/20 08:42:58;;;;;;;7.55;4.78;;;17.40;99.90;;;;;;4995376;28;20045;-69
2022/05/20 08:45:27;;;;;;;10.25;4.70;;;17.70;99.90;;;;;;4991712;28;20048;-69
2022/05/20 08:47:54;;;;;;;9.20;4.53;;;17.90;99.90;;;;;;4982926;28;20501;-70
2022/05/20 08:50:43;;;;;;;8.00;4.43;;;18.00;99.90;;;;;;4994867;28;20506;-69
2022/05/20 08:53:32;;;;;;;8.27;4.25;;;18.10;99.90;;;;;;4992146;28;20423;-69
2022/05/20 08:56:07;;;;;;;8.55;5.00;;;18.20;99.90;;;;;;4994659;28;20046;-69
2022/05/20 08:58:37;;;;;;;8.07;4.57;;;18.40;99.90;;;;;;5011211;28;20042;-70
2022/05/20 09:01:03;;;;;;;8.70;4.85;;;18.50;99.90;;;;;;4995299;28;20045;-69
2022/05/20 09:03:30;;;;;;;7.72;5.15;;;18.30;99.90;;;;;;4994457;28;20046;-69
2022/05/20 09:06:10;;;;;;;9.93;5.20;;;18.10;99.90;;;;;;4978330;28;20042;-70
2022/05/20 09:08:36;;;;;;;8.15;5.32;;;17.90;99.90;;;;;;4978769;28;20046;-69
2022/05/20 09:11:05;;;;;;;8.57;5.28;;;18.30;99.90;;;;;;4994542;28;20196;-69
2022/05/20 09:16:21;;;;;;;7.40;5.40;;;18.80;99.90;;;;;;4994401;28;20116;-69
2022/05/20 09:18:50;;;;;;;9.65;5.50;;;19.10;99.90;;;;;;4991543;28;20050;-69
2022/05/20 09:21:34;;;;;;;10.60;5.22;;;19.30;99.90;;;;;;4975694;28;20391;-68
2022/05/20 09:24:15;;;;;;;8.02;4.70;;;19.40;99.90;;;;;;4975652;28;20094;-68
2022/05/20 09:26:47;;;;;;;7.07;4.18;;;19.70;99.90;;;;;;4991405;28;20108;-71
2022/05/20 09:29:39;;;;;;;6.55;4.20;;;19.60;99.90;;;;;;4975510;28;20054;-70
2022/05/20 09:32:13;;;;;;;6.20;4.40;;;19.40;99.90;;;;;;4985107;28;20045;-71
2022/05/20 09:34:40;;;;;;;7.50;4.90;;;19.30;99.90;;;;;;4993559;28;20112;-69
2022/05/20 09:37:16;;;;;;;10.90;5.70;;;19.30;99.90;;;;;;5010311;28;20042;-69
2022/05/20 09:39:44;;;;;;;7.15;5.28;;;19.40;99.90;;;;;;4993786;28;20394;-69
2022/05/20 09:42:18;;;;;;;9.23;6.25;;;19.50;99.90;;;;;;4994899;28;20046;-69
2022/05/20 09:44:50;;;;;;;9.75;5.68;;;19.50;99.90;;;;;;4982078;28;20117;-69
2022/05/20 09:47:25;;;;;;;10.80;5.25;;;19.70;99.90;;;;;;4978130;28;20052;-69
2022/05/20 09:50:22;;;;;;;10.75;5.70;;;20.00;99.90;;;;;;4978386;28;20470;-69
2022/05/20 09:52:52;;;;;;;8.35;5.18;;;20.30;99.90;;;;;;5010722;28;20132;-68
2022/05/20 09:55:40;;;;;;;9.32;4.90;;;20.60;99.90;;;;;;4993683;28;20045;-69
2022/05/20 09:58:28;;;;;;;6.25;4.22;;;20.90;99.90;;;;;;4993984;28;20069;-69
2022/05/20 10:01:06;;;;;;;6.90;4.57;;;21.10;99.90;;;;;;4994203;28;20398;-69
2022/05/20 10:03:34;;;;;;;6.60;4.75;;;21.20;99.90;;;;;;4994362;28;20423;-69
2022/05/20 10:06:18;;;;;;;6.90;4.30;;;21.20;99.90;;;;;;4993911;28;20081;-68
2022/05/20 10:09:12;;;;;;;8.90;4.85;;;21.10;99.90;;;;;;4994139;28;20184;-69
2022/05/20 10:11:48;;;;;;;6.82;4.47;;;20.80;99.90;;;;;;5010691;28;20050;-70
2022/05/20 10:14:20;;;;;;;5.85;4.05;;;20.90;99.90;;;;;;4994161;28;20456;-68
2022/05/20 10:16:56;;;;;;;12.40;4.18;;;20.80;99.90;;;;;;4977705;28;20569;-69
2022/05/20 10:19:31;;;;;;;9.10;3.88;;;20.70;99.90;;;;;;4994837;28;20048;-69
2022/05/20 10:22:14;;;;;;;7.68;4.80;;;20.20;99.90;;;;;;4991529;28;20375;-69
2022/05/20 10:25:17;;;;;;;7.60;4.10;;;20.10;99.90;;;;;;4978518;28;20050;-69
2022/05/20 10:32:34;;;;;;;8.02;4.13;;;20.30;99.90;;;;;;4979201;28;20558;-69
2022/05/20 10:33:53;;;;;;;6.55;4.60;;;20.80;99.90;;;;;;4978667;28;20050;-70
2022/05/20 10:36:47;;;;;;;7.30;5.07;;;20.90;99.90;;;;;;4978525;28;20050;-69
2022/05/20 10:39:50;;;;;;;7.00;5.03;;;21.10;99.90;;;;;;4962567;28;20134;-69
2022/05/20 10:42:32;;;;;;;6.35;5.43;;;21.30;99.90;;;;;;4969947;28;20065;-69
2022/05/20 10:51:11;;;;;;;5.60;4.88;;;21.20;99.90;;;;;;5014646;28;20410;-69
2022/05/20 10:53:53;;;;;;;7.78;5.05;;;20.80;99.90;;;;;;4997177;28;20117;-69
2022/05/20 10:56:39;;;;;;;6.38;4.80;;;20.90;99.90;;;;;;4996478;28;20486;-69
2022/05/20 10:59:14;;;;;;;7.18;6.38;;;21.10;99.90;;;;;;4996510;28;20044;-69
2022/05/20 11:02:32;;;;;;;7.78;6.32;;;21.40;99.90;;;;;;4996816;28;20080;-69
2022/05/20 11:05:10;;;;;;;9.80;6.28;;;21.50;99.90;;;;;;4988268;28;20498;-70
2022/05/20 11:07:36;;;;;;;9.88;7.03;;;21.50;99.90;;;;;;4997014;28;20050;-69
2022/05/20 11:10:24;;;;;;;7.28;6.22;;;21.70;99.90;;;;;;4996986;28;20448;-70
2022/05/20 11:13:20;;;;;;;8.80;7.00;;;21.80;99.90;;;;;;4997159;28;20046;-70
2022/05/20 11:15:57;;;;;;;8.60;5.45;;;21.80;99.90;;;;;;4980568;28;20042;-70
2022/05/20 11:18:51;;;;;;;6.95;6.10;;;21.80;99.90;;;;;;4996323;28;20096;-71
2022/05/20 11:21:37;;;;;;;10.00;7.05;;;21.70;99.90;;;;;;4996311;28;20092;-69
2022/05/20 11:24:34;;;;;;;7.25;6.45;;;22.20;99.90;;;;;;4996725;28;20045;-70
2022/05/20 11:27:13;;;;;;;8.15;6.30;;;22.40;99.90;;;;;;4977778;28;20069;-68
2022/05/20 11:29:56;;;;;;;7.90;6.85;;;22.60;99.90;;;;;;4993628;28;20140;-70
2022/05/20 11:32:42;;;;;;;9.40;7.18;;;22.80;99.90;;;;;;4993202;28;20483;-69
2022/05/20 11:35:32;;;;;;;7.03;6.25;;;23.00;99.90;;;;;;5001902;28;20046;-69
2022/05/20 11:38:05;;;;;;;6.83;6.23;;;23.40;99.90;;;;;;4996409;28;20050;-69
2022/05/20 11:41:18;;;;;;;8.75;7.20;;;23.60;99.90;;;;;;5012950;28;20289;-71
2022/05/20 11:43:56;;;;;;;8.13;7.20;;;23.60;92.20;;;;;;4978984;28;20394;-68
2022/05/20 11:46:42;;;;;;;10.05;7.30;;;23.60;99.90;;;;;;5012989;28;20050;-69
2022/05/20 11:49:32;;;;;;;7.85;6.82;;;24.00;99.70;;;;;;5012775;28;20042;-69
2022/05/20 11:52:14;;;;;;;6.95;6.30;;;24.20;99.90;;;;;;4992276;28;20062;-68
2022/05/20 11:54:51;;;;;;;6.15;5.03;;;24.30;92.90;;;;;;4977416;28;20474;-69
2022/05/20 11:57:22;;;;;;;7.07;5.25;;;24.50;90.60;;;;;;4985004;28;20348;-69
2022/05/20 12:00:11;;;;;;;8.40;6.10;;;24.70;98.40;;;;;;4996458;28;20500;-69
2022/05/20 12:02:48;;;;;;;6.30;5.15;;;24.70;89.90;;;;;;5012506;28;20045;-69
2022/05/20 12:05:17;;;;;;;5.75;4.75;;;24.80;99.90;;;;;;4979074;28;20081;-69
2022/05/20 12:07:43;;;;;;;7.68;5.30;;;24.80;94.60;;;;;;4996218;28;20058;-69
2022/05/20 12:10:31;;;;;;;6.82;5.18;;;25.10;99.90;;;;;;4995454;28;20478;-69
2022/05/20 12:13:16;;;;;;;6.38;4.90;;;25.30;87.90;;;;;;4995965;28;20049;-69
2022/05/20 12:15:46;;;;;;;4.55;4.10;;;25.10;69.10;;;;;;4995106;28;20054;-69
2022/05/20 12:24:23;;;;;;;6.65;4.75;;;25.40;68.50;;;;;;4995308;28;20129;-68
2022/05/20 12:26:52;;;;;;;7.20;4.90;;;25.50;65.90;;;;;;4995579;28;20096;-70
2022/05/20 12:29:40;;;;;;;6.05;5.45;;;25.40;92.30;;;;;;5011412;28;20045;-69
2022/05/20 12:32:15;;;;;;;6.05;5.30;;;25.20;66.50;;;;;;4995638;28;20038;-69
2022/05/20 12:34:42;;;;;;;6.53;5.55;;;24.80;73.80;;;;;;4995121;28;20038;-69
2022/05/20 12:37:28;;;;;;;5.40;4.88;;;24.70;87.10;;;;;;4995243;28;20046;-70
2022/05/20 12:39:54;;;;;;;6.40;5.80;;;24.60;85.10;;;;;;4994926;28;20049;-70
2022/05/20 12:42:26;;;;;;;6.80;6.10;;;24.40;89.50;;;;;;4994869;28;20050;-69
2022/05/20 12:44:53;;;;;;;5.63;5.10;;;24.50;72.30;;;;;;4970258;28;20116;-68
2022/05/20 12:47:29;;;;;;;6.82;6.10;;;24.50;86.30;;;;;;4976806;28;20038;-69
2022/05/20 12:50:04;;;;;;;7.50;6.82;;;24.50;77.80;;;;;;4976357;28;20121;-69
2022/05/20 12:52:35;;;;;;;8.40;6.68;;;24.40;76.40;;;;;;4975960;28;20050;-69
2022/05/20 12:55:19;;;;;;;6.93;6.22;;;24.50;87.30;;;;;;4975403;28;20056;-69
2022/05/20 12:57:57;;;;;;;8.40;7.07;;;24.40;83.10;;;;;;4995099;28;20061;-69
2022/05/20 13:00:40;;;;;;;8.77;7.35;;;24.40;70.40;;;;;;4994779;28;20057;-71
2022/05/20 13:03:18;;;;;;;7.50;6.80;;;24.60;80.00;;;;;;4978504;28;20042;-69
2022/05/20 13:05:50;;;;;;;7.95;6.38;;;24.40;93.20;;;;;;4994253;28;20375;-69
2022/05/20 13:08:20;;;;;;;6.95;5.10;;;24.20;83.40;;;;;;4994268;28;20050;-68
2022/05/20 13:10:47;;;;;;;4.68;4.20;;;24.30;80.60;;;;;;4978470;28;20045;-68
2022/05/20 13:13:16;;;;;;;5.40;4.25;;;24.10;84.20;;;;;;4994726;28;20052;-69
2022/05/20 13:16:03;;;;;;;5.60;3.97;;;23.80;78.90;;;;;;4994139;28;20049;-68
2022/05/20 13:18:34;;;;;;;5.20;4.70;;;23.60;70.70;;;;;;4978270;28;20041;-69
2022/05/20 13:21:17;;;;;;;5.85;5.35;;;23.40;77.80;;;;;;4982806;28;20057;-68
2022/05/20 13:23:53;;;;;;;5.53;4.95;;;23.20;84.40;;;;;;4987224;28;20113;-69
2022/05/20 13:26:31;;;;;;;6.60;5.03;;;23.20;93.20;;;;;;4959142;28;20450;-70
2022/05/20 13:29:14;;;;;;;6.50;5.10;;;23.00;87.10;;;;;;4991796;28;20430;-69
2022/05/20 13:31:41;;;;;;;5.32;4.72;;;22.80;91.90;;;;;;4975967;28;20050;-69
2022/05/20 13:34:07;;;;;;;5.70;4.15;;;22.40;96.60;;;;;;4974903;28;20046;-68
2022/05/20 13:36:51;;;;;;;6.63;4.63;;;22.20;95.00;;;;;;4994537;28;20465;-68
2022/05/20 13:39:23;;;;;;;4.72;4.28;;;22.00;74.80;;;;;;4979808;28;20050;-68
2022/05/20 13:41:50;;;;;;;5.15;4.10;;;21.70;96.70;;;;;;4975706;28;20049;-68